sensor_id;sensor_type;location;lat;lon;timestamp;P1;durP1;ratioP1;P2;durP2;ratioP2
12348;SDS011;5974;42.710;27.258;2023-09-19T00:00:21;5.73;;;3.90;;
12348;SDS011;5974;42.710;27.258;2023-09-19T00:02:53;5.23;;;4.30;;
12348;SDS011;5974;42.710;27.258;2023-09-19T00:05:22;4.83;;;4.33;;
12348;SDS011;5974;42.710;27.258;2023-09-19T00:07:52;5.83;;;4.30;;
12348;SDS011;5974;42.710;27.258;2023-09-19T00:10:20;5.43;;;4.40;;
12348;SDS011;5974;42.710;27.258;2023-09-19T00:12:49;6.33;;;4.60;;
12348;SDS011;5974;42.710;27.258;2023-09-19T00:15:19;5.53;;;3.97;;
12348;SDS011;5974;42.710;27.258;2023-09-19T00:17:46;6.47;;;4.20;;
12348;SDS011;5974;42.710;27.258;2023-09-19T00:20:13;5.40;;;4.90;;
12348;SDS011;5974;42.710;27.258;2023-09-19T00:22:42;6.10;;;4.23;;
12348;SDS011;5974;42.710;27.258;2023-09-19T00:25:09;5.17;;;4.67;;
12348;SDS011;5974;42.710;27.258;2023-09-19T00:27:37;4.43;;;4.07;;
12348;SDS011;5974;42.710;27.258;2023-09-19T00:30:07;5.53;;;4.37;;
12348;SDS011;5974;42.710;27.258;2023-09-19T00:32:41;4.80;;;4.40;;
12348;SDS011;5974;42.710;27.258;2023-09-19T00:35:08;5.13;;;4.50;;
12348;SDS011;5974;42.710;27.258;2023-09-19T00:37:36;5.10;;;4.53;;
12348;SDS011;5974;42.710;27.258;2023-09-19T00:40:05;4.70;;;4.30;;
12348;SDS011;5974;42.710;27.258;2023-09-19T00:42:36;4.97;;;4.10;;
12348;SDS011;5974;42.710;27.258;2023-09-19T00:45:04;8.63;;;5.90;;
12348;SDS011;5974;42.710;27.258;2023-09-19T00:47:32;5.30;;;4.80;;
12348;SDS011;5974;42.710;27.258;2023-09-19T00:50:00;5.93;;;5.17;;
12348;SDS011;5974;42.710;27.258;2023-09-19T00:52:29;5.73;;;5.17;;
12348;SDS011;5974;42.710;27.258;2023-09-19T00:54:57;6.63;;;6.03;;
12348;SDS011;5974;42.710;27.258;2023-09-19T00:57:25;6.23;;;5.63;;
12348;SDS011;5974;42.710;27.258;2023-09-19T00:59:52;6.10;;;5.50;;
12348;SDS011;5974;42.710;27.258;2023-09-19T01:02:21;6.07;;;5.00;;
12348;SDS011;5974;42.710;27.258;2023-09-19T01:04:47;6.50;;;5.33;;
12348;SDS011;5974;42.710;27.258;2023-09-19T01:07:16;5.37;;;4.87;;
12348;SDS011;5974;42.710;27.258;2023-09-19T01:09:43;5.03;;;4.53;;
12348;SDS011;5974;42.710;27.258;2023-09-19T01:12:10;5.33;;;4.83;;
12348;SDS011;5974;42.710;27.258;2023-09-19T01:14:44;4.60;;;4.20;;
12348;SDS011;5974;42.710;27.258;2023-09-19T01:17:24;8.37;;;4.63;;
12348;SDS011;5974;42.710;27.258;2023-09-19T01:20:03;4.93;;;4.47;;
12348;SDS011;5974;42.710;27.258;2023-09-19T01:22:53;4.63;;;4.23;;
12348;SDS011;5974;42.710;27.258;2023-09-19T01:28:39;4.60;;;4.10;;
12348;SDS011;5974;42.710;27.258;2023-09-19T01:31:21;4.47;;;4.07;;
12348;SDS011;5974;42.710;27.258;2023-09-19T01:33:56;6.87;;;4.43;;
12348;SDS011;5974;42.710;27.258;2023-09-19T01:36:30;4.63;;;4.23;;
12348;SDS011;5974;42.710;27.258;2023-09-19T01:39:00;5.70;;;5.00;;
12348;SDS011;5974;42.710;27.258;2023-09-19T01:41:38;5.37;;;4.87;;
12348;SDS011;5974;42.710;27.258;2023-09-19T01:44:17;7.60;;;6.60;;
12348;SDS011;5974;42.710;27.258;2023-09-19T01:46:52;6.43;;;5.83;;
12348;SDS011;5974;42.710;27.258;2023-09-19T01:49:27;6.00;;;5.40;;
12348;SDS011;5974;42.710;27.258;2023-09-19T01:52:02;5.63;;;4.93;;
12348;SDS011;5974;42.710;27.258;2023-09-19T01:54:34;5.57;;;5.10;;
12348;SDS011;5974;42.710;27.258;2023-09-19T01:57:07;6.33;;;4.77;;
12348;SDS011;5974;42.710;27.258;2023-09-19T01:59:41;7.93;;;5.63;;
12348;SDS011;5974;42.710;27.258;2023-09-19T02:02:13;8.63;;;5.13;;
12348;SDS011;5974;42.710;27.258;2023-09-19T02:04:43;6.37;;;4.73;;
12348;SDS011;5974;42.710;27.258;2023-09-19T02:07:10;5.03;;;4.53;;
12348;SDS011;5974;42.710;27.258;2023-09-19T02:09:37;5.60;;;4.77;;
12348;SDS011;5974;42.710;27.258;2023-09-19T02:12:05;6.90;;;4.43;;
12348;SDS011;5974;42.710;27.258;2023-09-19T02:14:33;5.77;;;4.70;;
12348;SDS011;5974;42.710;27.258;2023-09-19T02:17:01;6.13;;;4.77;;
12348;SDS011;5974;42.710;27.258;2023-09-19T02:19:32;5.17;;;4.67;;
12348;SDS011;5974;42.710;27.258;2023-09-19T02:21:59;4.83;;;4.43;;
12348;SDS011;5974;42.710;27.258;2023-09-19T02:24:28;4.93;;;4.43;;
12348;SDS011;5974;42.710;27.258;2023-09-19T02:26:56;7.53;;;4.87;;
12348;SDS011;5974;42.710;27.258;2023-09-19T02:29:24;5.33;;;4.30;;
12348;SDS011;5974;42.710;27.258;2023-09-19T02:31:51;5.37;;;4.73;;
12348;SDS011;5974;42.710;27.258;2023-09-19T02:34:21;5.17;;;4.60;;
12348;SDS011;5974;42.710;27.258;2023-09-19T02:36:49;6.10;;;5.60;;
12348;SDS011;5974;42.710;27.258;2023-09-19T02:39:18;7.50;;;5.30;;
12348;SDS011;5974;42.710;27.258;2023-09-19T02:41:45;7.10;;;6.40;;
12348;SDS011;5974;42.710;27.258;2023-09-19T02:44:12;10.70;;;8.73;;
12348;SDS011;5974;42.710;27.258;2023-09-19T02:46:39;9.73;;;6.37;;
12348;SDS011;5974;42.710;27.258;2023-09-19T02:49:07;5.50;;;5.00;;
12348;SDS011;5974;42.710;27.258;2023-09-19T02:51:34;7.67;;;4.80;;
12348;SDS011;5974;42.710;27.258;2023-09-19T02:54:02;5.33;;;4.83;;
12348;SDS011;5974;42.710;27.258;2023-09-19T02:56:29;8.00;;;6.60;;
12348;SDS011;5974;42.710;27.258;2023-09-19T02:58:57;8.10;;;6.70;;
12348;SDS011;5974;42.710;27.258;2023-09-19T03:01:25;7.50;;;6.73;;
12348;SDS011;5974;42.710;27.258;2023-09-19T03:03:53;5.57;;;5.07;;
12348;SDS011;5974;42.710;27.258;2023-09-19T03:06:20;5.80;;;5.30;;
12348;SDS011;5974;42.710;27.258;2023-09-19T03:08:47;7.10;;;5.33;;
12348;SDS011;5974;42.710;27.258;2023-09-19T03:11:18;5.47;;;5.00;;
12348;SDS011;5974;42.710;27.258;2023-09-19T03:13:50;6.10;;;5.53;;
12348;SDS011;5974;42.710;27.258;2023-09-19T03:16:17;7.57;;;6.03;;
12348;SDS011;5974;42.710;27.258;2023-09-19T03:18:46;6.70;;;5.73;;
12348;SDS011;5974;42.710;27.258;2023-09-19T03:21:14;7.37;;;6.20;;
12348;SDS011;5974;42.710;27.258;2023-09-19T03:23:41;8.10;;;5.73;;
12348;SDS011;5974;42.710;27.258;2023-09-19T03:26:10;7.07;;;6.10;;
12348;SDS011;5974;42.710;27.258;2023-09-19T03:28:41;10.73;;;6.10;;
12348;SDS011;5974;42.710;27.258;2023-09-19T03:31:08;11.03;;;6.90;;
12348;SDS011;5974;42.710;27.258;2023-09-19T03:33:37;10.93;;;7.10;;
12348;SDS011;5974;42.710;27.258;2023-09-19T03:36:04;9.37;;;6.60;;
12348;SDS011;5974;42.710;27.258;2023-09-19T03:38:32;13.73;;;6.67;;
12348;SDS011;5974;42.710;27.258;2023-09-19T03:41:00;17.70;;;7.33;;
12348;SDS011;5974;42.710;27.258;2023-09-19T03:43:27;8.50;;;6.30;;
12348;SDS011;5974;42.710;27.258;2023-09-19T03:45:55;6.83;;;6.20;;
12348;SDS011;5974;42.710;27.258;2023-09-19T03:48:22;7.33;;;5.40;;
12348;SDS011;5974;42.710;27.258;2023-09-19T03:50:49;5.13;;;4.70;;
12348;SDS011;5974;42.710;27.258;2023-09-19T03:53:16;6.07;;;4.70;;
12348;SDS011;5974;42.710;27.258;2023-09-19T03:55:44;5.13;;;4.73;;
12348;SDS011;5974;42.710;27.258;2023-09-19T03:58:12;5.57;;;5.03;;
12348;SDS011;5974;42.710;27.258;2023-09-19T04:00:39;5.60;;;5.10;;
12348;SDS011;5974;42.710;27.258;2023-09-19T04:03:07;5.67;;;5.17;;
12348;SDS011;5974;42.710;27.258;2023-09-19T04:05:35;5.60;;;5.20;;
12348;SDS011;5974;42.710;27.258;2023-09-19T04:08:02;4.97;;;4.57;;
12348;SDS011;5974;42.710;27.258;2023-09-19T04:10:30;7.83;;;5.20;;
12348;SDS011;5974;42.710;27.258;2023-09-19T04:12:57;7.07;;;4.70;;
12348;SDS011;5974;42.710;27.258;2023-09-19T04:15:23;5.00;;;4.53;;
12348;SDS011;5974;42.710;27.258;2023-09-19T04:17:51;6.10;;;5.50;;
12348;SDS011;5974;42.710;27.258;2023-09-19T04:20:19;6.90;;;5.30;;
12348;SDS011;5974;42.710;27.258;2023-09-19T04:22:48;6.40;;;5.13;;
12348;SDS011;5974;42.710;27.258;2023-09-19T04:25:15;7.37;;;5.20;;
12348;SDS011;5974;42.710;27.258;2023-09-19T04:27:43;8.30;;;5.23;;
12348;SDS011;5974;42.710;27.258;2023-09-19T04:30:10;8.83;;;6.50;;
12348;SDS011;5974;42.710;27.258;2023-09-19T04:32:38;10.40;;;7.00;;
12348;SDS011;5974;42.710;27.258;2023-09-19T04:35:06;16.03;;;7.53;;
12348;SDS011;5974;42.710;27.258;2023-09-19T04:37:37;12.07;;;7.50;;
12348;SDS011;5974;42.710;27.258;2023-09-19T04:40:06;12.80;;;7.10;;
12348;SDS011;5974;42.710;27.258;2023-09-19T04:42:38;7.90;;;5.97;;
12348;SDS011;5974;42.710;27.258;2023-09-19T04:45:06;9.40;;;6.13;;
12348;SDS011;5974;42.710;27.258;2023-09-19T04:47:34;10.37;;;5.87;;
12348;SDS011;5974;42.710;27.258;2023-09-19T04:50:04;7.43;;;5.03;;
12348;SDS011;5974;42.710;27.258;2023-09-19T04:52:33;8.17;;;5.47;;
12348;SDS011;5974;42.710;27.258;2023-09-19T04:55:01;7.10;;;5.30;;
12348;SDS011;5974;42.710;27.258;2023-09-19T04:57:29;14.80;;;5.73;;
12348;SDS011;5974;42.710;27.258;2023-09-19T04:59:56;8.40;;;5.73;;
12348;SDS011;5974;42.710;27.258;2023-09-19T05:02:23;9.63;;;6.17;;
12348;SDS011;5974;42.710;27.258;2023-09-19T05:04:50;8.00;;;6.13;;
12348;SDS011;5974;42.710;27.258;2023-09-19T05:07:18;12.80;;;5.93;;
12348;SDS011;5974;42.710;27.258;2023-09-19T05:09:47;10.60;;;5.70;;
12348;SDS011;5974;42.710;27.258;2023-09-19T05:12:15;8.23;;;5.50;;
12348;SDS011;5974;42.710;27.258;2023-09-19T05:14:43;9.23;;;4.90;;
12348;SDS011;5974;42.710;27.258;2023-09-19T05:17:10;7.17;;;5.37;;
12348;SDS011;5974;42.710;27.258;2023-09-19T05:19:37;8.70;;;5.03;;
12348;SDS011;5974;42.710;27.258;2023-09-19T05:22:04;6.00;;;4.23;;
12348;SDS011;5974;42.710;27.258;2023-09-19T05:24:32;9.37;;;4.70;;
12348;SDS011;5974;42.710;27.258;2023-09-19T05:26:58;6.47;;;4.67;;
12348;SDS011;5974;42.710;27.258;2023-09-19T05:29:27;9.30;;;4.97;;
12348;SDS011;5974;42.710;27.258;2023-09-19T05:31:54;10.43;;;4.77;;
12348;SDS011;5974;42.710;27.258;2023-09-19T05:34:21;7.73;;;4.77;;
12348;SDS011;5974;42.710;27.258;2023-09-19T05:36:48;7.87;;;4.70;;
12348;SDS011;5974;42.710;27.258;2023-09-19T05:39:15;9.43;;;4.60;;
12348;SDS011;5974;42.710;27.258;2023-09-19T05:41:42;6.23;;;4.83;;
12348;SDS011;5974;42.710;27.258;2023-09-19T05:44:08;8.83;;;4.53;;
12348;SDS011;5974;42.710;27.258;2023-09-19T05:46:37;12.07;;;4.60;;
12348;SDS011;5974;42.710;27.258;2023-09-19T05:49:04;12.33;;;4.60;;
12348;SDS011;5974;42.710;27.258;2023-09-19T05:51:30;7.82;;;4.50;;
12348;SDS011;5974;42.710;27.258;2023-09-19T05:53:57;9.90;;;4.60;;
12348;SDS011;5974;42.710;27.258;2023-09-19T05:56:24;9.55;;;4.40;;
12348;SDS011;5974;42.710;27.258;2023-09-19T05:58:52;7.03;;;4.07;;
12348;SDS011;5974;42.710;27.258;2023-09-19T06:01:19;3.63;;;3.10;;
12348;SDS011;5974;42.710;27.258;2023-09-19T06:03:47;3.58;;;3.25;;
12348;SDS011;5974;42.710;27.258;2023-09-19T06:06:14;5.55;;;3.30;;
12348;SDS011;5974;42.710;27.258;2023-09-19T06:08:41;3.20;;;2.80;;
12348;SDS011;5974;42.710;27.258;2023-09-19T06:11:10;3.28;;;3.00;;
12348;SDS011;5974;42.710;27.258;2023-09-19T06:13:36;3.22;;;2.92;;
12348;SDS011;5974;42.710;27.258;2023-09-19T06:16:05;3.25;;;3.05;;
12348;SDS011;5974;42.710;27.258;2023-09-19T06:18:32;3.50;;;3.08;;
12348;SDS011;5974;42.710;27.258;2023-09-19T06:21:01;5.28;;;3.00;;
12348;SDS011;5974;42.710;27.258;2023-09-19T06:23:32;8.40;;;2.97;;
12348;SDS011;5974;42.710;27.258;2023-09-19T06:26:00;3.63;;;3.33;;
12348;SDS011;5974;42.710;27.258;2023-09-19T06:28:27;5.70;;;3.10;;
12348;SDS011;5974;42.710;27.258;2023-09-19T06:30:54;3.80;;;2.67;;
12348;SDS011;5974;42.710;27.258;2023-09-19T06:33:22;4.03;;;3.10;;
12348;SDS011;5974;42.710;27.258;2023-09-19T06:35:49;17.47;;;6.80;;
12348;SDS011;5974;42.710;27.258;2023-09-19T06:38:20;14.70;;;4.57;;
12348;SDS011;5974;42.710;27.258;2023-09-19T06:40:46;4.10;;;3.03;;
12348;SDS011;5974;42.710;27.258;2023-09-19T06:43:13;3.37;;;3.07;;
12348;SDS011;5974;42.710;27.258;2023-09-19T06:45:40;3.90;;;3.47;;
12348;SDS011;5974;42.710;27.258;2023-09-19T06:48:07;5.60;;;3.20;;
12348;SDS011;5974;42.710;27.258;2023-09-19T06:50:35;4.73;;;3.37;;
12348;SDS011;5974;42.710;27.258;2023-09-19T06:53:02;3.60;;;3.30;;
12348;SDS011;5974;42.710;27.258;2023-09-19T06:55:31;4.37;;;3.50;;
12348;SDS011;5974;42.710;27.258;2023-09-19T06:57:57;3.37;;;3.13;;
12348;SDS011;5974;42.710;27.258;2023-09-19T07:00:24;3.10;;;2.90;;
12348;SDS011;5974;42.710;27.258;2023-09-19T07:02:56;10.10;;;3.37;;
12348;SDS011;5974;42.710;27.258;2023-09-19T07:05:25;3.13;;;2.90;;
12348;SDS011;5974;42.710;27.258;2023-09-19T07:07:53;3.50;;;3.20;;
12348;SDS011;5974;42.710;27.258;2023-09-19T07:10:21;4.43;;;3.30;;
12348;SDS011;5974;42.710;27.258;2023-09-19T07:12:56;3.22;;;2.95;;
12348;SDS011;5974;42.710;27.258;2023-09-19T07:15:24;4.22;;;3.00;;
12348;SDS011;5974;42.710;27.258;2023-09-19T07:17:51;3.10;;;2.80;;
12348;SDS011;5974;42.710;27.258;2023-09-19T07:20:19;6.20;;;3.00;;
12348;SDS011;5974;42.710;27.258;2023-09-19T07:22:45;3.47;;;2.85;;
12348;SDS011;5974;42.710;27.258;2023-09-19T07:25:14;4.75;;;3.10;;
12348;SDS011;5974;42.710;27.258;2023-09-19T07:27:41;2.88;;;2.47;;
12348;SDS011;5974;42.710;27.258;2023-09-19T07:30:10;3.78;;;2.75;;
12348;SDS011;5974;42.710;27.258;2023-09-19T07:32:38;2.97;;;2.70;;
12348;SDS011;5974;42.710;27.258;2023-09-19T07:35:06;5.53;;;2.80;;
12348;SDS011;5974;42.710;27.258;2023-09-19T07:37:33;3.10;;;2.80;;
12348;SDS011;5974;42.710;27.258;2023-09-19T07:40:01;3.17;;;2.60;;
12348;SDS011;5974;42.710;27.258;2023-09-19T07:42:32;3.23;;;3.00;;
12348;SDS011;5974;42.710;27.258;2023-09-19T07:45:02;4.00;;;2.60;;
12348;SDS011;5974;42.710;27.258;2023-09-19T07:47:30;2.60;;;2.40;;
12348;SDS011;5974;42.710;27.258;2023-09-19T07:49:57;3.10;;;2.80;;
12348;SDS011;5974;42.710;27.258;2023-09-19T07:52:25;2.63;;;2.40;;
12348;SDS011;5974;42.710;27.258;2023-09-19T07:54:52;6.20;;;2.70;;
12348;SDS011;5974;42.710;27.258;2023-09-19T07:57:19;4.20;;;2.53;;
12348;SDS011;5974;42.710;27.258;2023-09-19T07:59:46;2.80;;;2.60;;
12348;SDS011;5974;42.710;27.258;2023-09-19T08:02:13;2.93;;;2.60;;
12348;SDS011;5974;42.710;27.258;2023-09-19T08:04:43;5.53;;;2.97;;
12348;SDS011;5974;42.710;27.258;2023-09-19T08:07:12;5.07;;;2.70;;
12348;SDS011;5974;42.710;27.258;2023-09-19T08:09:39;2.90;;;2.53;;
12348;SDS011;5974;42.710;27.258;2023-09-19T08:12:07;2.57;;;2.37;;
12348;SDS011;5974;42.710;27.258;2023-09-19T08:14:35;4.10;;;2.50;;
12348;SDS011;5974;42.710;27.258;2023-09-19T08:17:03;2.60;;;2.40;;
12348;SDS011;5974;42.710;27.258;2023-09-19T08:19:31;2.47;;;2.27;;
12348;SDS011;5974;42.710;27.258;2023-09-19T08:21:59;2.53;;;2.33;;
12348;SDS011;5974;42.710;27.258;2023-09-19T08:24:28;3.70;;;2.60;;
12348;SDS011;5974;42.710;27.258;2023-09-19T08:26:55;2.47;;;2.20;;
12348;SDS011;5974;42.710;27.258;2023-09-19T08:29:22;2.80;;;2.50;;
12348;SDS011;5974;42.710;27.258;2023-09-19T08:31:53;4.77;;;2.70;;
12348;SDS011;5974;42.710;27.258;2023-09-19T08:34:21;2.50;;;2.30;;
12348;SDS011;5974;42.710;27.258;2023-09-19T08:36:48;4.27;;;2.40;;
12348;SDS011;5974;42.710;27.258;2023-09-19T08:39:19;2.67;;;2.47;;
12348;SDS011;5974;42.710;27.258;2023-09-19T08:41:46;2.80;;;2.50;;
12348;SDS011;5974;42.710;27.258;2023-09-19T08:44:12;6.57;;;2.50;;
12348;SDS011;5974;42.710;27.258;2023-09-19T08:46:40;2.43;;;2.33;;
12348;SDS011;5974;42.710;27.258;2023-09-19T08:49:08;5.17;;;2.60;;
12348;SDS011;5974;42.710;27.258;2023-09-19T08:51:46;3.57;;;2.57;;
12348;SDS011;5974;42.710;27.258;2023-09-19T08:54:20;2.93;;;2.73;;
12348;SDS011;5974;42.710;27.258;2023-09-19T08:56:51;3.00;;;2.80;;
12348;SDS011;5974;42.710;27.258;2023-09-19T08:59:20;3.37;;;2.63;;
12348;SDS011;5974;42.710;27.258;2023-09-19T09:01:50;3.33;;;2.67;;
12348;SDS011;5974;42.710;27.258;2023-09-19T09:04:19;3.27;;;2.97;;
12348;SDS011;5974;42.710;27.258;2023-09-19T09:06:46;3.30;;;3.00;;
12348;SDS011;5974;42.710;27.258;2023-09-19T09:09:16;2.90;;;2.70;;
12348;SDS011;5974;42.710;27.258;2023-09-19T09:11:44;3.50;;;2.37;;
12348;SDS011;5974;42.710;27.258;2023-09-19T09:14:12;2.60;;;2.50;;
12348;SDS011;5974;42.710;27.258;2023-09-19T09:16:40;4.23;;;2.73;;
12348;SDS011;5974;42.710;27.258;2023-09-19T09:19:06;3.07;;;2.80;;
12348;SDS011;5974;42.710;27.258;2023-09-19T09:21:33;3.37;;;2.90;;
12348;SDS011;5974;42.710;27.258;2023-09-19T09:26:56;2.80;;;2.60;;
12348;SDS011;5974;42.710;27.258;2023-09-19T09:32:20;2.60;;;2.50;;
12348;SDS011;5974;42.710;27.258;2023-09-19T09:34:50;4.20;;;2.57;;
12348;SDS011;5974;42.710;27.258;2023-09-19T09:37:18;3.00;;;2.80;;
12348;SDS011;5974;42.710;27.258;2023-09-19T09:39:49;3.23;;;2.93;;
12348;SDS011;5974;42.710;27.258;2023-09-19T09:42:32;3.53;;;2.93;;
12348;SDS011;5974;42.710;27.258;2023-09-19T09:45:16;3.23;;;2.97;;
12348;SDS011;5974;42.710;27.258;2023-09-19T09:47:44;3.70;;;2.70;;
12348;SDS011;5974;42.710;27.258;2023-09-19T09:50:27;4.67;;;3.00;;
12348;SDS011;5974;42.710;27.258;2023-09-19T09:53:19;4.77;;;3.27;;
12348;SDS011;5974;42.710;27.258;2023-09-19T09:56:01;3.90;;;3.07;;
12348;SDS011;5974;42.710;27.258;2023-09-19T09:58:32;3.10;;;2.90;;
12348;SDS011;5974;42.710;27.258;2023-09-19T10:01:02;3.53;;;3.23;;
12348;SDS011;5974;42.710;27.258;2023-09-19T10:03:35;5.37;;;2.97;;
12348;SDS011;5974;42.710;27.258;2023-09-19T10:06:06;4.70;;;3.00;;
12348;SDS011;5974;42.710;27.258;2023-09-19T10:08:59;3.80;;;3.50;;
12348;SDS011;5974;42.710;27.258;2023-09-19T10:11:38;4.93;;;2.93;;
12348;SDS011;5974;42.710;27.258;2023-09-19T10:14:09;2.93;;;2.70;;
12348;SDS011;5974;42.710;27.258;2023-09-19T10:16:39;3.20;;;2.70;;
12348;SDS011;5974;42.710;27.258;2023-09-19T10:19:07;4.13;;;3.00;;
12348;SDS011;5974;42.710;27.258;2023-09-19T10:21:36;3.70;;;2.40;;
12348;SDS011;5974;42.710;27.258;2023-09-19T10:24:04;3.17;;;2.97;;
12348;SDS011;5974;42.710;27.258;2023-09-19T10:26:34;4.50;;;2.90;;
12348;SDS011;5974;42.710;27.258;2023-09-19T10:29:02;5.47;;;3.47;;
12348;SDS011;5974;42.710;27.258;2023-09-19T10:31:34;3.17;;;2.73;;
12348;SDS011;5974;42.710;27.258;2023-09-19T10:34:02;4.13;;;3.13;;
12348;SDS011;5974;42.710;27.258;2023-09-19T10:36:32;3.27;;;2.73;;
12348;SDS011;5974;42.710;27.258;2023-09-19T10:39:00;3.87;;;2.87;;
12348;SDS011;5974;42.710;27.258;2023-09-19T10:41:31;3.80;;;3.00;;
12348;SDS011;5974;42.710;27.258;2023-09-19T10:44:00;6.30;;;3.20;;
12348;SDS011;5974;42.710;27.258;2023-09-19T10:46:31;3.23;;;2.93;;
12348;SDS011;5974;42.710;27.258;2023-09-19T10:49:00;3.37;;;2.57;;
12348;SDS011;5974;42.710;27.258;2023-09-19T10:51:28;3.50;;;2.67;;
12348;SDS011;5974;42.710;27.258;2023-09-19T10:53:59;3.47;;;3.00;;
12348;SDS011;5974;42.710;27.258;2023-09-19T10:56:32;3.70;;;3.30;;
12348;SDS011;5974;42.710;27.258;2023-09-19T10:59:07;3.30;;;3.00;;
12348;SDS011;5974;42.710;27.258;2023-09-19T11:01:46;3.80;;;3.50;;
12348;SDS011;5974;42.710;27.258;2023-09-19T11:04:29;6.23;;;3.50;;
12348;SDS011;5974;42.710;27.258;2023-09-19T11:07:01;4.53;;;3.20;;
12348;SDS011;5974;42.710;27.258;2023-09-19T11:24:28;6.20;;;3.33;;
12348;SDS011;5974;42.710;27.258;2023-09-19T11:27:08;3.60;;;3.27;;
12348;SDS011;5974;42.710;27.258;2023-09-19T11:29:38;4.30;;;3.30;;
12348;SDS011;5974;42.710;27.258;2023-09-19T11:32:06;7.80;;;3.47;;
12348;SDS011;5974;42.710;27.258;2023-09-19T11:34:39;3.73;;;3.43;;
12348;SDS011;5974;42.710;27.258;2023-09-19T11:40:10;3.53;;;2.93;;
12348;SDS011;5974;42.710;27.258;2023-09-19T11:42:41;2.90;;;2.63;;
12348;SDS011;5974;42.710;27.258;2023-09-19T11:48:11;7.53;;;3.50;;
12348;SDS011;5974;42.710;27.258;2023-09-19T11:50:42;4.93;;;3.07;;
12348;SDS011;5974;42.710;27.258;2023-09-19T11:53:10;4.43;;;3.10;;
12348;SDS011;5974;42.710;27.258;2023-09-19T11:55:38;3.10;;;2.80;;
12348;SDS011;5974;42.710;27.258;2023-09-19T11:58:06;4.70;;;2.90;;
12348;SDS011;5974;42.710;27.258;2023-09-19T12:00:34;6.97;;;3.30;;
12348;SDS011;5974;42.710;27.258;2023-09-19T12:03:05;3.57;;;3.27;;
12348;SDS011;5974;42.710;27.258;2023-09-19T12:05:34;4.20;;;3.20;;
12348;SDS011;5974;42.710;27.258;2023-09-19T12:08:04;5.43;;;3.10;;
12348;SDS011;5974;42.710;27.258;2023-09-19T12:10:33;4.83;;;3.37;;
12348;SDS011;5974;42.710;27.258;2023-09-19T12:13:09;3.80;;;3.50;;
12348;SDS011;5974;42.710;27.258;2023-09-19T12:15:37;4.00;;;3.70;;
12348;SDS011;5974;42.710;27.258;2023-09-19T12:18:05;5.60;;;3.20;;
12348;SDS011;5974;42.710;27.258;2023-09-19T12:20:42;4.47;;;3.50;;
12348;SDS011;5974;42.710;27.258;2023-09-19T12:23:14;4.17;;;2.90;;
12348;SDS011;5974;42.710;27.258;2023-09-19T12:25:41;3.33;;;3.00;;
12348;SDS011;5974;42.710;27.258;2023-09-19T12:28:12;4.43;;;3.10;;
12348;SDS011;5974;42.710;27.258;2023-09-19T12:30:38;3.87;;;2.97;;
12348;SDS011;5974;42.710;27.258;2023-09-19T12:33:14;7.73;;;3.77;;
12348;SDS011;5974;42.710;27.258;2023-09-19T12:35:44;5.27;;;3.00;;
12348;SDS011;5974;42.710;27.258;2023-09-19T12:38:10;4.07;;;3.30;;
12348;SDS011;5974;42.710;27.258;2023-09-19T12:40:51;5.37;;;3.60;;
12348;SDS011;5974;42.710;27.258;2023-09-19T12:43:18;3.23;;;2.87;;
12348;SDS011;5974;42.710;27.258;2023-09-19T12:45:47;5.57;;;2.73;;
12348;SDS011;5974;42.710;27.258;2023-09-19T12:48:17;3.50;;;3.07;;
12348;SDS011;5974;42.710;27.258;2023-09-19T12:50:59;3.67;;;3.20;;
12348;SDS011;5974;42.710;27.258;2023-09-19T12:53:31;3.50;;;3.20;;
12348;SDS011;5974;42.710;27.258;2023-09-19T12:56:00;4.80;;;3.47;;
12348;SDS011;5974;42.710;27.258;2023-09-19T12:58:27;3.33;;;3.07;;
12348;SDS011;5974;42.710;27.258;2023-09-19T13:00:57;3.67;;;3.23;;
12348;SDS011;5974;42.710;27.258;2023-09-19T13:03:25;6.00;;;2.90;;
12348;SDS011;5974;42.710;27.258;2023-09-19T13:05:54;3.17;;;2.83;;
12348;SDS011;5974;42.710;27.258;2023-09-19T13:08:25;3.43;;;3.13;;
12348;SDS011;5974;42.710;27.258;2023-09-19T13:11:05;6.00;;;3.50;;
12348;SDS011;5974;42.710;27.258;2023-09-19T13:13:35;3.47;;;3.17;;
12348;SDS011;5974;42.710;27.258;2023-09-19T13:16:03;6.60;;;3.37;;
12348;SDS011;5974;42.710;27.258;2023-09-19T13:18:41;4.47;;;3.40;;
12348;SDS011;5974;42.710;27.258;2023-09-19T13:21:10;5.07;;;3.60;;
12348;SDS011;5974;42.710;27.258;2023-09-19T13:23:40;3.40;;;3.10;;
12348;SDS011;5974;42.710;27.258;2023-09-19T13:26:10;4.43;;;3.57;;
12348;SDS011;5974;42.710;27.258;2023-09-19T13:28:37;3.33;;;3.07;;
12348;SDS011;5974;42.710;27.258;2023-09-19T13:31:05;6.53;;;3.53;;
12348;SDS011;5974;42.710;27.258;2023-09-19T13:33:33;4.37;;;3.30;;
12348;SDS011;5974;42.710;27.258;2023-09-19T13:36:01;4.90;;;3.30;;
12348;SDS011;5974;42.710;27.258;2023-09-19T13:38:28;5.13;;;3.73;;
12348;SDS011;5974;42.710;27.258;2023-09-19T13:40:54;5.53;;;3.27;;
12348;SDS011;5974;42.710;27.258;2023-09-19T13:43:23;3.27;;;3.03;;
12348;SDS011;5974;42.710;27.258;2023-09-19T13:45:50;5.03;;;3.50;;
12348;SDS011;5974;42.710;27.258;2023-09-19T13:48:17;6.93;;;3.30;;
12348;SDS011;5974;42.710;27.258;2023-09-19T13:50:47;3.83;;;3.43;;
12348;SDS011;5974;42.710;27.258;2023-09-19T13:53:14;5.10;;;3.43;;
12348;SDS011;5974;42.710;27.258;2023-09-19T13:55:43;3.93;;;3.30;;
12348;SDS011;5974;42.710;27.258;2023-09-19T13:58:10;3.70;;;3.40;;
12348;SDS011;5974;42.710;27.258;2023-09-19T14:00:39;3.80;;;3.20;;
12348;SDS011;5974;42.710;27.258;2023-09-19T14:03:06;4.00;;;3.10;;
12348;SDS011;5974;42.710;27.258;2023-09-19T14:05:33;8.00;;;3.50;;
12348;SDS011;5974;42.710;27.258;2023-09-19T14:08:00;7.70;;;3.50;;
12348;SDS011;5974;42.710;27.258;2023-09-19T14:10:28;5.47;;;4.00;;
12348;SDS011;5974;42.710;27.258;2023-09-19T14:12:56;5.17;;;3.47;;
12348;SDS011;5974;42.710;27.258;2023-09-19T14:15:24;5.13;;;3.40;;
12348;SDS011;5974;42.710;27.258;2023-09-19T14:17:56;4.10;;;3.40;;
12348;SDS011;5974;42.710;27.258;2023-09-19T14:20:24;4.40;;;3.30;;
12348;SDS011;5974;42.710;27.258;2023-09-19T14:22:52;4.83;;;3.10;;
12348;SDS011;5974;42.710;27.258;2023-09-19T14:25:20;5.37;;;3.37;;
12348;SDS011;5974;42.710;27.258;2023-09-19T14:27:47;6.53;;;3.70;;
12348;SDS011;5974;42.710;27.258;2023-09-19T14:30:15;3.53;;;3.20;;
12348;SDS011;5974;42.710;27.258;2023-09-19T14:32:42;7.10;;;3.50;;
12348;SDS011;5974;42.710;27.258;2023-09-19T14:35:10;3.57;;;3.10;;
12348;SDS011;5974;42.710;27.258;2023-09-19T14:37:40;6.17;;;3.63;;
12348;SDS011;5974;42.710;27.258;2023-09-19T14:40:07;3.80;;;3.50;;
12348;SDS011;5974;42.710;27.258;2023-09-19T14:42:35;4.70;;;3.40;;
12348;SDS011;5974;42.710;27.258;2023-09-19T14:45:05;6.10;;;3.77;;
12348;SDS011;5974;42.710;27.258;2023-09-19T14:47:32;3.57;;;3.27;;
12348;SDS011;5974;42.710;27.258;2023-09-19T14:50:00;4.47;;;4.07;;
12348;SDS011;5974;42.710;27.258;2023-09-19T14:52:29;4.13;;;3.40;;
12348;SDS011;5974;42.710;27.258;2023-09-19T14:54:56;3.70;;;3.30;;
12348;SDS011;5974;42.710;27.258;2023-09-19T14:57:23;5.53;;;3.00;;
12348;SDS011;5974;42.710;27.258;2023-09-19T14:59:51;4.23;;;3.30;;
12348;SDS011;5974;42.710;27.258;2023-09-19T15:02:18;6.13;;;4.03;;
12348;SDS011;5974;42.710;27.258;2023-09-19T15:04:44;3.90;;;3.20;;
12348;SDS011;5974;42.710;27.258;2023-09-19T15:07:12;6.97;;;3.70;;
12348;SDS011;5974;42.710;27.258;2023-09-19T15:09:41;5.67;;;4.10;;
12348;SDS011;5974;42.710;27.258;2023-09-19T15:12:08;6.03;;;4.20;;
12348;SDS011;5974;42.710;27.258;2023-09-19T15:14:39;4.10;;;3.70;;
12348;SDS011;5974;42.710;27.258;2023-09-19T15:17:07;3.77;;;3.47;;
12348;SDS011;5974;42.710;27.258;2023-09-19T15:19:33;6.20;;;3.87;;
12348;SDS011;5974;42.710;27.258;2023-09-19T15:22:00;4.47;;;3.20;;
12348;SDS011;5974;42.710;27.258;2023-09-19T15:24:27;5.40;;;3.20;;
12348;SDS011;5974;42.710;27.258;2023-09-19T15:26:56;8.73;;;3.93;;
12348;SDS011;5974;42.710;27.258;2023-09-19T15:29:23;6.43;;;3.80;;